Ardmore, North Carolina
Current Conditions -  °F | °C
As of 10:54 AM on Friday 31 Oct 2014 (Local Time) from KINT Reporting Station
Broken Clouds Broken Clouds  
Wind Chill: 50°   Ceiling: 2800
Heat Index: 50°   Visibility: 10mi
Dew Point: 35°   Wind: 8mph
Humidity: 57%   Direction: 70°ENE
Pressure: 29.96"   Gusts: NA
Location:  36.0595°N, 80.3192°W
Report Text: KINT 311454Z 07007KT 10SM BKN028 BKN036 10/02 A2996 RMK AO2 SLP144 T01000017 58005
Loading
Personal Weather Stations






























Interactive Weather Map
Tropical Storm Tracking
New forecast layout! Learn more

10-Day Weather Forecast

Advertisements
Track Severe Weather on mobile